Madison, AL (35758)

4:28 AM CDT on September 05, 2015 (GMT -0500)
Taylors Crossing | | Change Station
CLOSE
Current Station
Personal Weather Station
Location: Madison, AL
Elevation: 650 ft
Nearby Weather Stations

Elev 650 ft 34.70 °N, 86.79 °W | Updated 14 minutes ago

Clear
Clear
69.6 °F
Feels Like 69.6 °F
N
0.0
Wind Variable Wind from SSE

Today
High -- | Low -- °F
--% Chance of Precip.
Yesterday
High -- | Low -- °F
Precip. -- in
6:22 AM 7:08 PM
Waning Gibbous, 50% visible
Pressure 30.02 in
Visibility 0.5 miles
Clouds Clear
Dew Point 69 °F
Humidity 99%
Rainfall 0.00 in
Snow Depth Not available.
UV 0 out of 12
Pollen 10.10 out of 12
Air Quality Not available.
Flu Activity Not available.
SPECI KHSV 050905Z AUTO 00000KT 1/2SM R18R/P6000FT FG CLR 22/20 A3002 RMK AO2 T02170200
Pressure 30.02 in
Visibility 0.5 miles
Clouds Clear
Dew Point 69 °F
Humidity 99%
Rainfall 0.00 in
Snow Depth Not available.
UV 0 out of 12
Pollen 10.10 out of 12
Air Quality Not available.
Flu Activity Not available.
SPECI KHSV 050905Z AUTO 00000KT 1/2SM R18R/P6000FT FG CLR 22/20 A3002 RMK AO2 T02170200

10-Day Weather Forecast

×

Almanac

Astronomy

Sep. 05, 2015 Rise Set
Actual Time
Civil Twilight
Nautical Twilight
Astronomical Twilight
Moon
Length of Visible Light
Length of Day
Tomorrow will be .
, % of the Moon is Illuminated

Today's Extremes

State Highs State Lows

Community

WunderPhotos

Upload Photos

1,852,440 photos uploaded!

WunderBlogs® & News

Nearby

Air Quality

  Air Quality AQ Index Pollutant
Not available.

Snow Depth

Station Depth Elevation

Earthquake Activity

City Distance Mag. Time & Date
Minimum magnitude displayed is 2.5.

Coastal Water Temperatures

Place Temperature

Stations

Nearby Weather Stations

Station Location Temp. Windchill Dew Point Humidity Wind Precip. Elev Updated Type